sensor_id;sensor_type;location;lat;lon;timestamp;P1;durP1;ratioP1;P2;durP2;ratioP2
51122;SDS011;37162;41.724;13.346;2023-07-20T00:01:24;5.93;;;2.30;;
51122;SDS011;37162;41.724;13.346;2023-07-20T00:03:50;3.17;;;2.40;;
51122;SDS011;37162;41.724;13.346;2023-07-20T00:06:23;6.90;;;2.25;;
51122;SDS011;37162;41.724;13.346;2023-07-20T00:08:50;6.50;;;2.85;;
51122;SDS011;37162;41.724;13.346;2023-07-20T00:11:16;2.38;;;2.13;;
51122;SDS011;37162;41.724;13.346;2023-07-20T00:13:42;3.38;;;2.10;;
51122;SDS011;37162;41.724;13.346;2023-07-20T00:16:08;3.85;;;2.47;;
51122;SDS011;37162;41.724;13.346;2023-07-20T00:18:33;7.05;;;2.15;;
51122;SDS011;37162;41.724;13.346;2023-07-20T00:20:59;6.40;;;2.13;;
51122;SDS011;37162;41.724;13.346;2023-07-20T00:23:25;11.77;;;2.50;;
51122;SDS011;37162;41.724;13.346;2023-07-20T00:25:51;5.25;;;2.95;;
51122;SDS011;37162;41.724;13.346;2023-07-20T00:28:16;6.47;;;2.58;;
51122;SDS011;37162;41.724;13.346;2023-07-20T00:30:42;5.45;;;2.92;;
51122;SDS011;37162;41.724;13.346;2023-07-20T00:33:09;4.53;;;1.67;;
51122;SDS011;37162;41.724;13.346;2023-07-20T00:35:36;3.97;;;2.30;;
51122;SDS011;37162;41.724;13.346;2023-07-20T00:38:03;3.50;;;1.92;;
51122;SDS011;37162;41.724;13.346;2023-07-20T00:40:35;5.72;;;2.20;;
51122;SDS011;37162;41.724;13.346;2023-07-20T00:43:01;4.05;;;2.38;;
51122;SDS011;37162;41.724;13.346;2023-07-20T00:45:26;3.17;;;1.92;;
51122;SDS011;37162;41.724;13.346;2023-07-20T00:47:52;3.45;;;2.50;;
51122;SDS011;37162;41.724;13.346;2023-07-20T00:50:18;3.08;;;2.15;;
51122;SDS011;37162;41.724;13.346;2023-07-20T00:52:44;5.38;;;2.55;;
51122;SDS011;37162;41.724;13.346;2023-07-20T00:55:09;5.20;;;2.17;;
51122;SDS011;37162;41.724;13.346;2023-07-20T00:57:36;7.57;;;2.30;;
51122;SDS011;37162;41.724;13.346;2023-07-20T01:00:01;4.75;;;2.72;;
51122;SDS011;37162;41.724;13.346;2023-07-20T01:02:27;7.43;;;2.80;;
51122;SDS011;37162;41.724;13.346;2023-07-20T01:04:53;4.72;;;1.88;;
51122;SDS011;37162;41.724;13.346;2023-07-20T01:07:31;5.30;;;2.30;;
51122;SDS011;37162;41.724;13.346;2023-07-20T01:10:10;4.72;;;2.22;;
51122;SDS011;37162;41.724;13.346;2023-07-20T01:12:42;3.17;;;2.38;;
51122;SDS011;37162;41.724;13.346;2023-07-20T01:15:11;6.65;;;2.58;;
51122;SDS011;37162;41.724;13.346;2023-07-20T01:17:37;2.88;;;2.33;;
51122;SDS011;37162;41.724;13.346;2023-07-20T01:20:03;5.18;;;2.28;;
51122;SDS011;37162;41.724;13.346;2023-07-20T01:25:26;4.43;;;2.33;;
51122;SDS011;37162;41.724;13.346;2023-07-20T01:28:14;3.40;;;2.28;;
51122;SDS011;37162;41.724;13.346;2023-07-20T01:31:24;3.10;;;1.90;;
51122;SDS011;37162;41.724;13.346;2023-07-20T01:33:54;5.53;;;2.85;;
51122;SDS011;37162;41.724;13.346;2023-07-20T01:36:22;2.72;;;1.90;;
51122;SDS011;37162;41.724;13.346;2023-07-20T01:38:50;5.47;;;2.17;;
51122;SDS011;37162;41.724;13.346;2023-07-20T01:41:16;5.57;;;1.90;;
51122;SDS011;37162;41.724;13.346;2023-07-20T01:43:43;4.20;;;2.33;;
51122;SDS011;37162;41.724;13.346;2023-07-20T01:46:09;5.05;;;1.98;;
51122;SDS011;37162;41.724;13.346;2023-07-20T01:48:34;4.32;;;2.30;;
51122;SDS011;37162;41.724;13.346;2023-07-20T01:51:00;4.43;;;2.20;;
51122;SDS011;37162;41.724;13.346;2023-07-20T01:53:25;6.63;;;3.25;;
51122;SDS011;37162;41.724;13.346;2023-07-20T01:55:54;6.28;;;2.72;;
51122;SDS011;37162;41.724;13.346;2023-07-20T01:58:19;6.60;;;2.42;;
51122;SDS011;37162;41.724;13.346;2023-07-20T02:00:45;5.50;;;2.42;;
51122;SDS011;37162;41.724;13.346;2023-07-20T02:03:10;6.45;;;2.97;;
51122;SDS011;37162;41.724;13.346;2023-07-20T02:05:37;7.07;;;2.50;;
51122;SDS011;37162;41.724;13.346;2023-07-20T02:08:02;7.40;;;2.30;;
51122;SDS011;37162;41.724;13.346;2023-07-20T02:10:28;7.07;;;2.75;;
51122;SDS011;37162;41.724;13.346;2023-07-20T02:12:53;8.05;;;2.67;;
51122;SDS011;37162;41.724;13.346;2023-07-20T02:15:19;7.85;;;3.22;;
51122;SDS011;37162;41.724;13.346;2023-07-20T02:17:45;9.80;;;2.60;;
51122;SDS011;37162;41.724;13.346;2023-07-20T02:20:10;4.25;;;2.25;;
51122;SDS011;37162;41.724;13.346;2023-07-20T02:22:36;5.20;;;2.03;;
51122;SDS011;37162;41.724;13.346;2023-07-20T02:25:06;7.13;;;3.58;;
51122;SDS011;37162;41.724;13.346;2023-07-20T02:27:35;3.25;;;2.30;;
51122;SDS011;37162;41.724;13.346;2023-07-20T02:30:02;7.18;;;2.42;;
51122;SDS011;37162;41.724;13.346;2023-07-20T02:32:28;6.28;;;2.58;;
51122;SDS011;37162;41.724;13.346;2023-07-20T02:34:54;6.32;;;2.55;;
51122;SDS011;37162;41.724;13.346;2023-07-20T02:37:20;4.45;;;2.60;;
51122;SDS011;37162;41.724;13.346;2023-07-20T02:39:45;8.55;;;2.55;;
51122;SDS011;37162;41.724;13.346;2023-07-20T02:42:11;6.70;;;3.10;;
51122;SDS011;37162;41.724;13.346;2023-07-20T02:44:36;6.18;;;2.40;;
51122;SDS011;37162;41.724;13.346;2023-07-20T02:47:02;4.53;;;2.65;;
51122;SDS011;37162;41.724;13.346;2023-07-20T02:49:27;5.15;;;3.08;;
51122;SDS011;37162;41.724;13.346;2023-07-20T02:51:53;5.80;;;2.15;;
51122;SDS011;37162;41.724;13.346;2023-07-20T02:54:19;7.10;;;2.85;;
51122;SDS011;37162;41.724;13.346;2023-07-20T02:56:44;11.73;;;2.58;;
51122;SDS011;37162;41.724;13.346;2023-07-20T02:59:10;6.30;;;2.42;;
51122;SDS011;37162;41.724;13.346;2023-07-20T03:01:35;6.22;;;2.85;;
51122;SDS011;37162;41.724;13.346;2023-07-20T03:04:01;9.27;;;2.60;;
51122;SDS011;37162;41.724;13.346;2023-07-20T03:06:27;8.95;;;3.20;;
51122;SDS011;37162;41.724;13.346;2023-07-20T03:08:53;7.70;;;2.30;;
51122;SDS011;37162;41.724;13.346;2023-07-20T03:11:19;14.23;;;2.50;;
51122;SDS011;37162;41.724;13.346;2023-07-20T03:13:45;4.72;;;2.35;;
51122;SDS011;37162;41.724;13.346;2023-07-20T03:16:13;7.43;;;3.20;;
51122;SDS011;37162;41.724;13.346;2023-07-20T03:18:43;5.43;;;2.80;;
51122;SDS011;37162;41.724;13.346;2023-07-20T03:21:09;7.53;;;2.60;;
51122;SDS011;37162;41.724;13.346;2023-07-20T03:23:41;9.25;;;2.92;;
51122;SDS011;37162;41.724;13.346;2023-07-20T03:26:07;6.90;;;2.80;;
51122;SDS011;37162;41.724;13.346;2023-07-20T03:28:33;6.18;;;2.50;;
51122;SDS011;37162;41.724;13.346;2023-07-20T03:30:59;3.33;;;1.95;;
51122;SDS011;37162;41.724;13.346;2023-07-20T03:33:25;13.95;;;2.67;;
51122;SDS011;37162;41.724;13.346;2023-07-20T03:35:52;5.70;;;2.95;;
51122;SDS011;37162;41.724;13.346;2023-07-20T03:38:18;5.97;;;2.55;;
51122;SDS011;37162;41.724;13.346;2023-07-20T03:40:54;16.30;;;2.88;;
51122;SDS011;37162;41.724;13.346;2023-07-20T03:43:24;5.05;;;2.83;;
51122;SDS011;37162;41.724;13.346;2023-07-20T03:45:50;3.40;;;2.45;;
51122;SDS011;37162;41.724;13.346;2023-07-20T03:48:17;5.78;;;2.80;;
51122;SDS011;37162;41.724;13.346;2023-07-20T03:50:44;8.80;;;2.58;;
51122;SDS011;37162;41.724;13.346;2023-07-20T03:53:14;4.22;;;2.40;;
51122;SDS011;37162;41.724;13.346;2023-07-20T03:55:50;4.90;;;2.25;;
51122;SDS011;37162;41.724;13.346;2023-07-20T03:58:17;9.20;;;2.75;;
51122;SDS011;37162;41.724;13.346;2023-07-20T04:00:47;4.55;;;2.08;;
51122;SDS011;37162;41.724;13.346;2023-07-20T04:03:14;3.65;;;2.17;;
51122;SDS011;37162;41.724;13.346;2023-07-20T04:05:39;3.67;;;2.38;;
51122;SDS011;37162;41.724;13.346;2023-07-20T04:08:05;8.13;;;2.35;;
51122;SDS011;37162;41.724;13.346;2023-07-20T04:10:31;4.28;;;2.28;;
51122;SDS011;37162;41.724;13.346;2023-07-20T04:12:56;7.88;;;2.30;;
51122;SDS011;37162;41.724;13.346;2023-07-20T04:15:21;6.45;;;2.40;;
51122;SDS011;37162;41.724;13.346;2023-07-20T04:17:47;6.55;;;2.60;;
51122;SDS011;37162;41.724;13.346;2023-07-20T04:20:12;10.82;;;2.75;;
51122;SDS011;37162;41.724;13.346;2023-07-20T04:22:38;9.48;;;4.07;;
51122;SDS011;37162;41.724;13.346;2023-07-20T04:25:04;7.53;;;2.80;;
51122;SDS011;37162;41.724;13.346;2023-07-20T04:27:29;10.32;;;2.55;;
51122;SDS011;37162;41.724;13.346;2023-07-20T04:29:55;6.53;;;3.55;;
51122;SDS011;37162;41.724;13.346;2023-07-20T04:32:21;9.52;;;3.47;;
51122;SDS011;37162;41.724;13.346;2023-07-20T04:34:46;7.70;;;2.70;;
51122;SDS011;37162;41.724;13.346;2023-07-20T04:37:12;11.88;;;3.67;;
51122;SDS011;37162;41.724;13.346;2023-07-20T04:39:37;7.45;;;2.85;;
51122;SDS011;37162;41.724;13.346;2023-07-20T04:42:03;4.72;;;2.67;;
51122;SDS011;37162;41.724;13.346;2023-07-20T04:44:28;7.88;;;2.45;;
51122;SDS011;37162;41.724;13.346;2023-07-20T04:46:54;12.82;;;3.38;;
51122;SDS011;37162;41.724;13.346;2023-07-20T04:49:19;15.00;;;3.10;;
51122;SDS011;37162;41.724;13.346;2023-07-20T04:51:45;7.40;;;3.28;;
51122;SDS011;37162;41.724;13.346;2023-07-20T04:54:11;9.05;;;3.03;;
51122;SDS011;37162;41.724;13.346;2023-07-20T04:56:36;5.18;;;2.50;;
51122;SDS011;37162;41.724;13.346;2023-07-20T04:59:01;6.45;;;2.60;;
51122;SDS011;37162;41.724;13.346;2023-07-20T05:01:27;8.05;;;3.05;;
51122;SDS011;37162;41.724;13.346;2023-07-20T05:03:53;9.38;;;2.67;;
51122;SDS011;37162;41.724;13.346;2023-07-20T05:06:18;4.60;;;2.42;;
51122;SDS011;37162;41.724;13.346;2023-07-20T05:08:44;6.88;;;3.78;;
51122;SDS011;37162;41.724;13.346;2023-07-20T05:11:10;6.82;;;2.65;;
51122;SDS011;37162;41.724;13.346;2023-07-20T05:13:36;4.43;;;2.45;;
51122;SDS011;37162;41.724;13.346;2023-07-20T05:16:01;11.63;;;3.45;;
51122;SDS011;37162;41.724;13.346;2023-07-20T05:18:27;5.32;;;2.53;;
51122;SDS011;37162;41.724;13.346;2023-07-20T05:20:52;4.82;;;2.65;;
51122;SDS011;37162;41.724;13.346;2023-07-20T05:23:20;7.05;;;3.15;;
51122;SDS011;37162;41.724;13.346;2023-07-20T05:25:46;11.38;;;3.10;;
51122;SDS011;37162;41.724;13.346;2023-07-20T05:28:11;11.43;;;3.35;;
51122;SDS011;37162;41.724;13.346;2023-07-20T05:30:37;8.13;;;3.10;;
51122;SDS011;37162;41.724;13.346;2023-07-20T05:33:02;5.50;;;2.97;;
51122;SDS011;37162;41.724;13.346;2023-07-20T05:35:28;9.43;;;2.85;;
51122;SDS011;37162;41.724;13.346;2023-07-20T05:37:53;9.32;;;3.58;;
51122;SDS011;37162;41.724;13.346;2023-07-20T05:40:19;6.07;;;2.72;;
51122;SDS011;37162;41.724;13.346;2023-07-20T05:42:46;7.70;;;2.80;;
51122;SDS011;37162;41.724;13.346;2023-07-20T05:45:13;9.30;;;3.60;;
51122;SDS011;37162;41.724;13.346;2023-07-20T05:47:40;15.70;;;3.22;;
51122;SDS011;37162;41.724;13.346;2023-07-20T05:50:07;10.43;;;3.55;;
51122;SDS011;37162;41.724;13.346;2023-07-20T05:52:33;6.85;;;2.55;;
51122;SDS011;37162;41.724;13.346;2023-07-20T05:54:58;5.43;;;2.90;;
51122;SDS011;37162;41.724;13.346;2023-07-20T05:57:24;7.85;;;2.70;;
51122;SDS011;37162;41.724;13.346;2023-07-20T05:59:49;11.15;;;3.85;;
51122;SDS011;37162;41.724;13.346;2023-07-20T06:02:15;10.65;;;3.25;;
51122;SDS011;37162;41.724;13.346;2023-07-20T06:04:41;7.07;;;3.80;;
51122;SDS011;37162;41.724;13.346;2023-07-20T06:07:07;15.07;;;3.55;;
51122;SDS011;37162;41.724;13.346;2023-07-20T06:09:33;8.35;;;3.97;;
51122;SDS011;37162;41.724;13.346;2023-07-20T06:11:59;7.85;;;3.85;;
51122;SDS011;37162;41.724;13.346;2023-07-20T06:14:25;6.40;;;3.80;;
51122;SDS011;37162;41.724;13.346;2023-07-20T06:16:50;12.43;;;3.80;;
51122;SDS011;37162;41.724;13.346;2023-07-20T06:19:15;9.07;;;3.78;;
51122;SDS011;37162;41.724;13.346;2023-07-20T06:21:41;8.95;;;4.05;;
51122;SDS011;37162;41.724;13.346;2023-07-20T06:24:07;10.30;;;4.00;;
51122;SDS011;37162;41.724;13.346;2023-07-20T06:26:32;6.97;;;3.67;;
51122;SDS011;37162;41.724;13.346;2023-07-20T06:29:03;5.30;;;3.47;;
51122;SDS011;37162;41.724;13.346;2023-07-20T06:31:29;7.93;;;3.55;;
51122;SDS011;37162;41.724;13.346;2023-07-20T06:33:55;8.40;;;4.00;;
51122;SDS011;37162;41.724;13.346;2023-07-20T06:36:20;9.55;;;4.65;;
51122;SDS011;37162;41.724;13.346;2023-07-20T06:38:46;8.45;;;3.92;;
51122;SDS011;37162;41.724;13.346;2023-07-20T06:41:11;11.15;;;4.03;;
51122;SDS011;37162;41.724;13.346;2023-07-20T06:43:36;12.98;;;4.43;;
51122;SDS011;37162;41.724;13.346;2023-07-20T06:46:02;10.77;;;5.28;;
51122;SDS011;37162;41.724;13.346;2023-07-20T06:48:27;12.98;;;5.32;;
51122;SDS011;37162;41.724;13.346;2023-07-20T06:50:53;16.83;;;5.38;;
51122;SDS011;37162;41.724;13.346;2023-07-20T06:53:19;11.93;;;5.63;;
51122;SDS011;37162;41.724;13.346;2023-07-20T06:55:44;12.75;;;4.88;;
51122;SDS011;37162;41.724;13.346;2023-07-20T06:58:11;11.90;;;4.43;;
51122;SDS011;37162;41.724;13.346;2023-07-20T07:00:36;10.85;;;4.63;;
51122;SDS011;37162;41.724;13.346;2023-07-20T07:03:02;13.98;;;5.50;;
51122;SDS011;37162;41.724;13.346;2023-07-20T07:05:28;7.07;;;4.35;;
51122;SDS011;37162;41.724;13.346;2023-07-20T07:07:53;14.18;;;5.20;;
51122;SDS011;37162;41.724;13.346;2023-07-20T07:10:19;8.95;;;3.90;;
51122;SDS011;37162;41.724;13.346;2023-07-20T07:12:44;14.45;;;5.30;;
51122;SDS011;37162;41.724;13.346;2023-07-20T07:15:09;8.95;;;3.95;;
51122;SDS011;37162;41.724;13.346;2023-07-20T07:17:36;8.23;;;4.40;;
51122;SDS011;37162;41.724;13.346;2023-07-20T07:20:02;10.95;;;4.82;;
51122;SDS011;37162;41.724;13.346;2023-07-20T07:22:28;13.00;;;5.15;;
51122;SDS011;37162;41.724;13.346;2023-07-20T07:24:54;10.75;;;4.40;;
51122;SDS011;37162;41.724;13.346;2023-07-20T07:27:20;8.52;;;3.95;;
51122;SDS011;37162;41.724;13.346;2023-07-20T07:29:45;8.82;;;4.28;;
51122;SDS011;37162;41.724;13.346;2023-07-20T07:32:11;12.65;;;4.35;;
51122;SDS011;37162;41.724;13.346;2023-07-20T07:34:37;8.00;;;3.70;;
51122;SDS011;37162;41.724;13.346;2023-07-20T07:37:03;9.55;;;4.13;;
51122;SDS011;37162;41.724;13.346;2023-07-20T07:39:29;11.18;;;4.95;;
51122;SDS011;37162;41.724;13.346;2023-07-20T07:41:55;9.02;;;4.38;;
51122;SDS011;37162;41.724;13.346;2023-07-20T07:44:21;12.43;;;4.60;;
51122;SDS011;37162;41.724;13.346;2023-07-20T07:46:47;11.50;;;4.93;;
51122;SDS011;37162;41.724;13.346;2023-07-20T07:49:12;8.02;;;3.80;;
51122;SDS011;37162;41.724;13.346;2023-07-20T07:51:38;8.70;;;3.85;;
51122;SDS011;37162;41.724;13.346;2023-07-20T07:54:04;9.82;;;4.07;;
51122;SDS011;37162;41.724;13.346;2023-07-20T07:56:29;11.93;;;5.15;;
51122;SDS011;37162;41.724;13.346;2023-07-20T07:58:55;11.73;;;4.85;;
51122;SDS011;37162;41.724;13.346;2023-07-20T08:01:20;15.45;;;4.30;;
51122;SDS011;37162;41.724;13.346;2023-07-20T08:03:46;9.05;;;4.20;;
51122;SDS011;37162;41.724;13.346;2023-07-20T08:06:14;8.60;;;3.78;;
51122;SDS011;37162;41.724;13.346;2023-07-20T08:08:40;12.75;;;4.47;;
51122;SDS011;37162;41.724;13.346;2023-07-20T08:11:05;9.85;;;5.00;;
51122;SDS011;37162;41.724;13.346;2023-07-20T08:13:31;8.13;;;4.00;;
51122;SDS011;37162;41.724;13.346;2023-07-20T08:15:57;7.60;;;3.80;;
51122;SDS011;37162;41.724;13.346;2023-07-20T08:18:23;8.77;;;4.05;;
51122;SDS011;37162;41.724;13.346;2023-07-20T08:20:49;11.15;;;3.92;;
51122;SDS011;37162;41.724;13.346;2023-07-20T08:23:14;6.68;;;3.90;;
51122;SDS011;37162;41.724;13.346;2023-07-20T08:25:40;7.07;;;4.35;;
51122;SDS011;37162;41.724;13.346;2023-07-20T08:28:13;11.77;;;4.18;;
51122;SDS011;37162;41.724;13.346;2023-07-20T08:30:43;6.28;;;3.25;;
51122;SDS011;37162;41.724;13.346;2023-07-20T08:33:13;6.78;;;4.10;;
51122;SDS011;37162;41.724;13.346;2023-07-20T08:35:39;8.80;;;4.13;;
51122;SDS011;37162;41.724;13.346;2023-07-20T08:38:05;7.55;;;3.90;;
51122;SDS011;37162;41.724;13.346;2023-07-20T08:40:32;7.70;;;3.80;;
51122;SDS011;37162;41.724;13.346;2023-07-20T08:42:59;8.43;;;3.95;;
51122;SDS011;37162;41.724;13.346;2023-07-20T08:45:27;7.80;;;4.07;;
51122;SDS011;37162;41.724;13.346;2023-07-20T08:47:55;7.03;;;4.07;;
51122;SDS011;37162;41.724;13.346;2023-07-20T08:50:23;8.95;;;4.38;;
51122;SDS011;37162;41.724;13.346;2023-07-20T08:52:50;9.00;;;4.18;;
51122;SDS011;37162;41.724;13.346;2023-07-20T08:55:18;16.80;;;4.22;;
51122;SDS011;37162;41.724;13.346;2023-07-20T08:57:47;10.25;;;3.80;;
51122;SDS011;37162;41.724;13.346;2023-07-20T09:00:15;10.15;;;4.20;;
51122;SDS011;37162;41.724;13.346;2023-07-20T09:02:42;8.45;;;3.85;;
51122;SDS011;37162;41.724;13.346;2023-07-20T09:05:10;12.30;;;3.72;;
51122;SDS011;37162;41.724;13.346;2023-07-20T09:07:38;12.32;;;3.85;;
51122;SDS011;37162;41.724;13.346;2023-07-20T09:10:04;6.90;;;3.78;;
51122;SDS011;37162;41.724;13.346;2023-07-20T09:12:34;13.02;;;4.50;;
51122;SDS011;37162;41.724;13.346;2023-07-20T09:15:02;11.18;;;4.30;;
51122;SDS011;37162;41.724;13.346;2023-07-20T09:17:28;9.18;;;3.95;;
51122;SDS011;37162;41.724;13.346;2023-07-20T09:19:53;11.00;;;3.92;;
51122;SDS011;37162;41.724;13.346;2023-07-20T09:22:19;13.77;;;3.80;;
51122;SDS011;37162;41.724;13.346;2023-07-20T09:24:45;8.13;;;3.75;;
51122;SDS011;37162;41.724;13.346;2023-07-20T09:27:10;7.80;;;4.10;;
51122;SDS011;37162;41.724;13.346;2023-07-20T09:29:54;13.25;;;4.45;;
51122;SDS011;37162;41.724;13.346;2023-07-20T09:32:20;8.98;;;4.13;;
51122;SDS011;37162;41.724;13.346;2023-07-20T09:34:46;6.82;;;3.83;;
51122;SDS011;37162;41.724;13.346;2023-07-20T09:37:12;7.60;;;4.18;;
51122;SDS011;37162;41.724;13.346;2023-07-20T09:39:44;9.30;;;4.55;;
51122;SDS011;37162;41.724;13.346;2023-07-20T09:42:13;9.07;;;4.03;;
51122;SDS011;37162;41.724;13.346;2023-07-20T09:44:39;11.63;;;3.60;;
51122;SDS011;37162;41.724;13.346;2023-07-20T09:47:06;8.35;;;5.50;;
51122;SDS011;37162;41.724;13.346;2023-07-20T09:49:31;8.45;;;3.97;;
51122;SDS011;37162;41.724;13.346;2023-07-20T09:51:57;8.02;;;4.57;;
51122;SDS011;37162;41.724;13.346;2023-07-20T09:54:24;8.63;;;3.75;;
51122;SDS011;37162;41.724;13.346;2023-07-20T09:56:51;10.27;;;4.43;;
51122;SDS011;37162;41.724;13.346;2023-07-20T09:59:17;11.48;;;4.13;;
51122;SDS011;37162;41.724;13.346;2023-07-20T10:01:43;9.40;;;3.88;;
51122;SDS011;37162;41.724;13.346;2023-07-20T10:04:11;7.60;;;3.72;;
51122;SDS011;37162;41.724;13.346;2023-07-20T10:06:39;7.95;;;4.25;;
51122;SDS011;37162;41.724;13.346;2023-07-20T10:09:07;5.55;;;3.25;;
51122;SDS011;37162;41.724;13.346;2023-07-20T10:11:35;7.55;;;4.05;;
51122;SDS011;37162;41.724;13.346;2023-07-20T10:14:08;10.07;;;4.32;;
51122;SDS011;37162;41.724;13.346;2023-07-20T10:16:39;8.25;;;4.22;;
51122;SDS011;37162;41.724;13.346;2023-07-20T10:21:47;5.82;;;3.38;;
51122;SDS011;37162;41.724;13.346;2023-07-20T10:24:14;8.25;;;4.55;;
51122;SDS011;37162;41.724;13.346;2023-07-20T10:26:41;9.73;;;3.92;;
51122;SDS011;37162;41.724;13.346;2023-07-20T10:29:07;4.47;;;3.20;;
51122;SDS011;37162;41.724;13.346;2023-07-20T10:31:33;7.60;;;3.65;;
51122;SDS011;37162;41.724;13.346;2023-07-20T10:33:59;6.32;;;3.70;;
51122;SDS011;37162;41.724;13.346;2023-07-20T10:36:26;7.22;;;3.92;;
51122;SDS011;37162;41.724;13.346;2023-07-20T10:38:53;10.80;;;4.28;;
51122;SDS011;37162;41.724;13.346;2023-07-20T10:43:59;7.13;;;4.13;;
51122;SDS011;37162;41.724;13.346;2023-07-20T10:46:44;9.02;;;3.30;;
51122;SDS011;37162;41.724;13.346;2023-07-20T10:49:11;20.95;;;4.28;;
51122;SDS011;37162;41.724;13.346;2023-07-20T10:51:43;7.32;;;3.72;;
51122;SDS011;37162;41.724;13.346;2023-07-20T10:56:42;7.65;;;4.35;;
51122;SDS011;37162;41.724;13.346;2023-07-20T11:01:50;12.88;;;4.28;;
51122;SDS011;37162;41.724;13.346;2023-07-20T11:04:21;9.40;;;4.18;;
51122;SDS011;37162;41.724;13.346;2023-07-20T11:07:03;9.65;;;3.67;;
51122;SDS011;37162;41.724;13.346;2023-07-20T11:09:33;9.88;;;3.75;;
51122;SDS011;37162;41.724;13.346;2023-07-20T11:12:12;8.68;;;3.55;;
51122;SDS011;37162;41.724;13.346;2023-07-20T11:14:42;13.88;;;4.35;;
51122;SDS011;37162;41.724;13.346;2023-07-20T11:17:12;12.55;;;4.25;;
51122;SDS011;37162;41.724;13.346;2023-07-20T11:19:39;9.10;;;4.03;;
51122;SDS011;37162;41.724;13.346;2023-07-20T11:22:08;7.65;;;3.95;;
51122;SDS011;37162;41.724;13.346;2023-07-20T11:24:36;8.82;;;3.60;;
51122;SDS011;37162;41.724;13.346;2023-07-20T11:27:04;10.23;;;3.85;;
51122;SDS011;37162;41.724;13.346;2023-07-20T11:29:30;10.85;;;4.05;;
51122;SDS011;37162;41.724;13.346;2023-07-20T11:31:56;8.70;;;3.60;;
51122;SDS011;37162;41.724;13.346;2023-07-20T11:34:24;14.45;;;3.90;;
51122;SDS011;37162;41.724;13.346;2023-07-20T11:36:50;10.00;;;3.90;;
51122;SDS011;37162;41.724;13.346;2023-07-20T11:39:17;9.60;;;3.72;;
51122;SDS011;37162;41.724;13.346;2023-07-20T11:41:48;10.85;;;3.67;;
51122;SDS011;37162;41.724;13.346;2023-07-20T11:44:17;8.65;;;3.65;;
51122;SDS011;37162;41.724;13.346;2023-07-20T11:47:02;9.13;;;4.43;;
51122;SDS011;37162;41.724;13.346;2023-07-20T11:49:38;8.77;;;4.13;;
51122;SDS011;37162;41.724;13.346;2023-07-20T11:52:11;8.23;;;3.80;;
51122;SDS011;37162;41.724;13.346;2023-07-20T11:54:41;8.70;;;3.90;;
51122;SDS011;37162;41.724;13.346;2023-07-20T11:57:15;7.28;;;3.20;;
51122;SDS011;37162;41.724;13.346;2023-07-20T11:59:53;10.57;;;3.85;;
51122;SDS011;37162;41.724;13.346;2023-07-20T12:02:23;7.47;;;3.60;;
51122;SDS011;37162;41.724;13.346;2023-07-20T12:04:51;5.63;;;3.20;;
51122;SDS011;37162;41.724;13.346;2023-07-20T12:07:20;7.95;;;4.32;;
51122;SDS011;37162;41.724;13.346;2023-07-20T12:12:43;8.40;;;4.05;;
51122;SDS011;37162;41.724;13.346;2023-07-20T12:15:25;7.68;;;4.18;;
51122;SDS011;37162;41.724;13.346;2023-07-20T12:17:52;12.75;;;3.97;;
51122;SDS011;37162;41.724;13.346;2023-07-20T12:20:26;8.48;;;4.28;;
51122;SDS011;37162;41.724;13.346;2023-07-20T12:23:13;7.68;;;4.40;;
51122;SDS011;37162;41.724;13.346;2023-07-20T12:25:45;9.35;;;4.03;;
51122;SDS011;37162;41.724;13.346;2023-07-20T12:28:13;8.00;;;3.63;;
51122;SDS011;37162;41.724;13.346;2023-07-20T12:30:43;9.77;;;4.45;;
51122;SDS011;37162;41.724;13.346;2023-07-20T12:33:10;9.32;;;3.72;;
51122;SDS011;37162;41.724;13.346;2023-07-20T12:35:37;6.28;;;3.85;;
51122;SDS011;37162;41.724;13.346;2023-07-20T12:38:02;6.88;;;3.97;;
51122;SDS011;37162;41.724;13.346;2023-07-20T12:40:28;5.82;;;3.58;;
51122;SDS011;37162;41.724;13.346;2023-07-20T12:42:54;9.18;;;3.80;;
51122;SDS011;37162;41.724;13.346;2023-07-20T12:45:20;16.50;;;4.47;;
51122;SDS011;37162;41.724;13.346;2023-07-20T12:47:46;10.10;;;4.43;;
51122;SDS011;37162;41.724;13.346;2023-07-20T12:50:13;8.85;;;3.80;;
51122;SDS011;37162;41.724;13.346;2023-07-20T12:52:39;7.55;;;4.20;;
51122;SDS011;37162;41.724;13.346;2023-07-20T12:55:05;10.15;;;4.20;;
51122;SDS011;37162;41.724;13.346;2023-07-20T12:57:33;9.48;;;4.13;;
51122;SDS011;37162;41.724;13.346;2023-07-20T12:59:59;6.78;;;3.45;;
51122;SDS011;37162;41.724;13.346;2023-07-20T13:02:24;7.10;;;3.38;;
51122;SDS011;37162;41.724;13.346;2023-07-20T13:04:53;18.48;;;3.72;;
51122;SDS011;37162;41.724;13.346;2023-07-20T13:07:22;8.38;;;4.72;;
51122;SDS011;37162;41.724;13.346;2023-07-20T13:09:58;11.65;;;3.65;;
51122;SDS011;37162;41.724;13.346;2023-07-20T13:12:26;13.52;;;3.78;;
51122;SDS011;37162;41.724;13.346;2023-07-20T13:14:55;10.68;;;3.65;;
51122;SDS011;37162;41.724;13.346;2023-07-20T13:17:22;8.25;;;3.40;;
51122;SDS011;37162;41.724;13.346;2023-07-20T13:19:50;10.48;;;3.67;;
51122;SDS011;37162;41.724;13.346;2023-07-20T13:22:16;5.93;;;2.90;;
51122;SDS011;37162;41.724;13.346;2023-07-20T13:24:41;12.60;;;4.28;;
51122;SDS011;37162;41.724;13.346;2023-07-20T13:27:09;8.20;;;4.10;;
51122;SDS011;37162;41.724;13.346;2023-07-20T13:29:34;10.77;;;4.20;;
51122;SDS011;37162;41.724;13.346;2023-07-20T13:31:59;6.55;;;3.35;;
51122;SDS011;37162;41.724;13.346;2023-07-20T13:34:25;7.28;;;3.65;;
51122;SDS011;37162;41.724;13.346;2023-07-20T13:36:51;6.43;;;3.35;;
51122;SDS011;37162;41.724;13.346;2023-07-20T13:39:16;7.40;;;3.60;;
51122;SDS011;37162;41.724;13.346;2023-07-20T13:41:42;12.88;;;3.50;;
51122;SDS011;37162;41.724;13.346;2023-07-20T13:44:07;6.43;;;3.22;;
51122;SDS011;37162;41.724;13.346;2023-07-20T13:46:33;10.00;;;3.72;;
51122;SDS011;37162;41.724;13.346;2023-07-20T13:48:59;12.10;;;3.97;;
51122;SDS011;37162;41.724;13.346;2023-07-20T13:51:24;11.05;;;3.05;;
51122;SDS011;37162;41.724;13.346;2023-07-20T13:53:50;13.35;;;4.88;;
51122;SDS011;37162;41.724;13.346;2023-07-20T13:56:15;7.45;;;3.22;;
51122;SDS011;37162;41.724;13.346;2023-07-20T13:58:41;8.55;;;3.65;;
51122;SDS011;37162;41.724;13.346;2023-07-20T14:01:07;6.43;;;3.28;;
51122;SDS011;37162;41.724;13.346;2023-07-20T14:03:32;8.95;;;4.47;;
51122;SDS011;37162;41.724;13.346;2023-07-20T14:05:58;6.90;;;3.47;;
51122;SDS011;37162;41.724;13.346;2023-07-20T14:08:23;12.35;;;3.97;;
51122;SDS011;37162;41.724;13.346;2023-07-20T14:10:49;7.53;;;3.28;;
51122;SDS011;37162;41.724;13.346;2023-07-20T14:13:15;12.25;;;4.20;;
51122;SDS011;37162;41.724;13.346;2023-07-20T14:15:40;11.13;;;3.30;;
51122;SDS011;37162;41.724;13.346;2023-07-20T14:18:06;15.85;;;3.60;;
51122;SDS011;37162;41.724;13.346;2023-07-20T14:20:31;21.67;;;5.10;;
51122;SDS011;37162;41.724;13.346;2023-07-20T14:22:56;36.70;;;7.05;;
51122;SDS011;37162;41.724;13.346;2023-07-20T14:25:22;16.70;;;4.20;;
51122;SDS011;37162;41.724;13.346;2023-07-20T14:27:47;20.65;;;5.15;;
51122;SDS011;37162;41.724;13.346;2023-07-20T14:30:13;14.00;;;4.13;;
51122;SDS011;37162;41.724;13.346;2023-07-20T14:32:40;11.18;;;3.67;;
51122;SDS011;37162;41.724;13.346;2023-07-20T14:35:06;10.88;;;4.45;;
51122;SDS011;37162;41.724;13.346;2023-07-20T14:37:32;8.90;;;3.65;;
51122;SDS011;37162;41.724;13.346;2023-07-20T14:39:58;12.07;;;4.50;;
51122;SDS011;37162;41.724;13.346;2023-07-20T14:42:23;12.10;;;3.75;;
51122;SDS011;37162;41.724;13.346;2023-07-20T14:44:49;13.85;;;4.43;;
51122;SDS011;37162;41.724;13.346;2023-07-20T14:47:14;10.40;;;3.60;;